sensor_id;sensor_type;location;lat;lon;timestamp;P1;durP1;ratioP1;P2;durP2;ratioP2
19891;SDS011;10108;50.142;8.724;2023-06-22T00:01:07;13.68;;;9.32;;
19891;SDS011;10108;50.142;8.724;2023-06-22T00:03:33;12.15;;;9.60;;
19891;SDS011;10108;50.142;8.724;2023-06-22T00:05:59;12.02;;;9.30;;
19891;SDS011;10108;50.142;8.724;2023-06-22T00:08:25;14.30;;;9.93;;
19891;SDS011;10108;50.142;8.724;2023-06-22T00:10:51;13.95;;;9.95;;
19891;SDS011;10108;50.142;8.724;2023-06-22T00:13:17;13.30;;;10.20;;
19891;SDS011;10108;50.142;8.724;2023-06-22T00:15:43;12.82;;;10.02;;
19891;SDS011;10108;50.142;8.724;2023-06-22T00:18:10;13.90;;;10.32;;
19891;SDS011;10108;50.142;8.724;2023-06-22T00:20:38;12.85;;;10.32;;
19891;SDS011;10108;50.142;8.724;2023-06-22T00:23:05;12.50;;;9.40;;
19891;SDS011;10108;50.142;8.724;2023-06-22T00:25:34;14.88;;;9.90;;
19891;SDS011;10108;50.142;8.724;2023-06-22T00:28:01;16.83;;;10.45;;
19891;SDS011;10108;50.142;8.724;2023-06-22T00:30:28;12.63;;;9.85;;
19891;SDS011;10108;50.142;8.724;2023-06-22T00:32:56;12.27;;;10.10;;
19891;SDS011;10108;50.142;8.724;2023-06-22T00:35:24;14.02;;;10.05;;
19891;SDS011;10108;50.142;8.724;2023-06-22T00:37:55;15.30;;;10.20;;
19891;SDS011;10108;50.142;8.724;2023-06-22T00:40:27;12.93;;;10.10;;
19891;SDS011;10108;50.142;8.724;2023-06-22T00:42:57;15.38;;;10.32;;
19891;SDS011;10108;50.142;8.724;2023-06-22T00:45:23;14.63;;;9.73;;
19891;SDS011;10108;50.142;8.724;2023-06-22T00:47:55;14.30;;;9.35;;
19891;SDS011;10108;50.142;8.724;2023-06-22T00:50:23;12.32;;;9.80;;
19891;SDS011;10108;50.142;8.724;2023-06-22T00:52:51;13.70;;;9.90;;
19891;SDS011;10108;50.142;8.724;2023-06-22T00:55:19;12.38;;;9.07;;
19891;SDS011;10108;50.142;8.724;2023-06-22T00:57:47;14.02;;;9.85;;
19891;SDS011;10108;50.142;8.724;2023-06-22T01:00:16;12.98;;;9.65;;
19891;SDS011;10108;50.142;8.724;2023-06-22T01:02:45;12.40;;;9.30;;
19891;SDS011;10108;50.142;8.724;2023-06-22T01:05:13;14.27;;;9.15;;
19891;SDS011;10108;50.142;8.724;2023-06-22T01:16:13;14.48;;;10.75;;
19891;SDS011;10108;50.142;8.724;2023-06-22T01:18:44;16.80;;;13.75;;
19891;SDS011;10108;50.142;8.724;2023-06-22T01:21:12;22.55;;;20.00;;
19891;SDS011;10108;50.142;8.724;2023-06-22T01:26:56;30.63;;;27.35;;
19891;SDS011;10108;50.142;8.724;2023-06-22T01:29:57;31.95;;;28.92;;
19891;SDS011;10108;50.142;8.724;2023-06-22T01:32:28;31.52;;;28.52;;
19891;SDS011;10108;50.142;8.724;2023-06-22T01:34:57;31.85;;;28.80;;
19891;SDS011;10108;50.142;8.724;2023-06-22T01:37:26;31.83;;;28.65;;
19891;SDS011;10108;50.142;8.724;2023-06-22T01:39:58;32.60;;;29.50;;
19891;SDS011;10108;50.142;8.724;2023-06-22T01:42:24;32.92;;;29.85;;
19891;SDS011;10108;50.142;8.724;2023-06-22T01:44:54;34.03;;;30.73;;
19891;SDS011;10108;50.142;8.724;2023-06-22T01:47:21;34.20;;;30.48;;
19891;SDS011;10108;50.142;8.724;2023-06-22T01:49:50;36.28;;;31.75;;
19891;SDS011;10108;50.142;8.724;2023-06-22T01:52:27;34.00;;;30.58;;
19891;SDS011;10108;50.142;8.724;2023-06-22T01:55:13;33.75;;;30.42;;
19891;SDS011;10108;50.142;8.724;2023-06-22T01:57:39;34.20;;;31.00;;
19891;SDS011;10108;50.142;8.724;2023-06-22T02:00:13;33.83;;;30.48;;
19891;SDS011;10108;50.142;8.724;2023-06-22T02:06:04;32.55;;;29.45;;
19891;SDS011;10108;50.142;8.724;2023-06-22T02:08:51;32.20;;;28.98;;
19891;SDS011;10108;50.142;8.724;2023-06-22T02:11:24;29.85;;;26.95;;
19891;SDS011;10108;50.142;8.724;2023-06-22T02:13:55;30.80;;;27.73;;
19891;SDS011;10108;50.142;8.724;2023-06-22T02:22:42;28.50;;;25.60;;
19891;SDS011;10108;50.142;8.724;2023-06-22T02:25:10;28.42;;;25.48;;
19891;SDS011;10108;50.142;8.724;2023-06-22T02:27:36;27.92;;;25.23;;
19891;SDS011;10108;50.142;8.724;2023-06-22T02:30:21;27.60;;;25.08;;
19891;SDS011;10108;50.142;8.724;2023-06-22T02:33:06;27.73;;;24.92;;
19891;SDS011;10108;50.142;8.724;2023-06-22T02:35:37;29.05;;;25.40;;
19891;SDS011;10108;50.142;8.724;2023-06-22T02:38:05;26.92;;;24.33;;
19891;SDS011;10108;50.142;8.724;2023-06-22T02:40:31;26.65;;;24.00;;
19891;SDS011;10108;50.142;8.724;2023-06-22T02:46:12;27.33;;;24.42;;
19891;SDS011;10108;50.142;8.724;2023-06-22T02:48:59;26.00;;;23.42;;
19891;SDS011;10108;50.142;8.724;2023-06-22T02:51:25;24.73;;;22.25;;
19891;SDS011;10108;50.142;8.724;2023-06-22T02:53:51;24.70;;;22.13;;
19891;SDS011;10108;50.142;8.724;2023-06-22T02:56:23;25.75;;;22.95;;
19891;SDS011;10108;50.142;8.724;2023-06-22T02:58:53;25.33;;;22.70;;
19891;SDS011;10108;50.142;8.724;2023-06-22T03:01:19;25.45;;;22.65;;
19891;SDS011;10108;50.142;8.724;2023-06-22T03:03:49;24.48;;;22.00;;
19891;SDS011;10108;50.142;8.724;2023-06-22T03:06:16;23.95;;;21.38;;
19891;SDS011;10108;50.142;8.724;2023-06-22T03:08:49;24.88;;;22.38;;
19891;SDS011;10108;50.142;8.724;2023-06-22T03:11:15;23.60;;;21.30;;
19891;SDS011;10108;50.142;8.724;2023-06-22T03:13:41;23.90;;;21.45;;
19891;SDS011;10108;50.142;8.724;2023-06-22T03:16:08;23.70;;;21.30;;
19891;SDS011;10108;50.142;8.724;2023-06-22T03:18:34;24.13;;;21.83;;
19891;SDS011;10108;50.142;8.724;2023-06-22T03:21:01;24.83;;;22.10;;
19891;SDS011;10108;50.142;8.724;2023-06-22T03:23:27;23.02;;;20.73;;
19891;SDS011;10108;50.142;8.724;2023-06-22T03:25:54;23.63;;;21.23;;
19891;SDS011;10108;50.142;8.724;2023-06-22T03:28:21;24.27;;;21.83;;
19891;SDS011;10108;50.142;8.724;2023-06-22T03:30:47;23.83;;;21.27;;
19891;SDS011;10108;50.142;8.724;2023-06-22T03:33:13;23.50;;;21.05;;
19891;SDS011;10108;50.142;8.724;2023-06-22T03:35:39;23.58;;;21.08;;
19891;SDS011;10108;50.142;8.724;2023-06-22T03:38:05;23.58;;;21.08;;
19891;SDS011;10108;50.142;8.724;2023-06-22T03:40:32;23.33;;;21.02;;
19891;SDS011;10108;50.142;8.724;2023-06-22T03:42:58;23.38;;;20.83;;
19891;SDS011;10108;50.142;8.724;2023-06-22T03:45:24;23.13;;;20.70;;
19891;SDS011;10108;50.142;8.724;2023-06-22T03:47:50;22.77;;;20.35;;
19891;SDS011;10108;50.142;8.724;2023-06-22T03:50:16;23.27;;;20.83;;
19891;SDS011;10108;50.142;8.724;2023-06-22T03:52:42;22.23;;;19.92;;
19891;SDS011;10108;50.142;8.724;2023-06-22T03:55:09;23.33;;;20.42;;
19891;SDS011;10108;50.142;8.724;2023-06-22T03:57:35;21.40;;;19.30;;
19891;SDS011;10108;50.142;8.724;2023-06-22T04:00:01;21.55;;;19.25;;
19891;SDS011;10108;50.142;8.724;2023-06-22T04:02:37;20.92;;;18.73;;
19891;SDS011;10108;50.142;8.724;2023-06-22T04:05:04;20.85;;;18.65;;
19891;SDS011;10108;50.142;8.724;2023-06-22T04:07:30;21.52;;;19.25;;
19891;SDS011;10108;50.142;8.724;2023-06-22T04:09:57;20.33;;;18.20;;
19891;SDS011;10108;50.142;8.724;2023-06-22T04:12:23;19.75;;;17.75;;
19891;SDS011;10108;50.142;8.724;2023-06-22T04:14:49;20.77;;;18.58;;
19891;SDS011;10108;50.142;8.724;2023-06-22T04:17:15;20.30;;;18.15;;
19891;SDS011;10108;50.142;8.724;2023-06-22T04:19:43;20.90;;;18.33;;
19891;SDS011;10108;50.142;8.724;2023-06-22T04:22:09;22.33;;;18.45;;
19891;SDS011;10108;50.142;8.724;2023-06-22T04:24:35;20.08;;;17.98;;
19891;SDS011;10108;50.142;8.724;2023-06-22T04:27:01;20.23;;;16.83;;
19891;SDS011;10108;50.142;8.724;2023-06-22T04:29:29;18.95;;;16.92;;
19891;SDS011;10108;50.142;8.724;2023-06-22T04:31:58;20.33;;;16.83;;
19891;SDS011;10108;50.142;8.724;2023-06-22T04:34:28;20.15;;;17.60;;
19891;SDS011;10108;50.142;8.724;2023-06-22T04:36:54;19.70;;;16.67;;
19891;SDS011;10108;50.142;8.724;2023-06-22T04:39:21;19.13;;;17.08;;
19891;SDS011;10108;50.142;8.724;2023-06-22T04:41:47;19.98;;;17.15;;
19891;SDS011;10108;50.142;8.724;2023-06-22T04:44:14;18.98;;;16.88;;
19891;SDS011;10108;50.142;8.724;2023-06-22T04:46:50;19.48;;;17.38;;
19891;SDS011;10108;50.142;8.724;2023-06-22T04:49:20;21.95;;;17.08;;
19891;SDS011;10108;50.142;8.724;2023-06-22T04:51:47;18.42;;;16.50;;
19891;SDS011;10108;50.142;8.724;2023-06-22T04:54:14;18.95;;;16.38;;
19891;SDS011;10108;50.142;8.724;2023-06-22T04:56:40;19.85;;;16.08;;
19891;SDS011;10108;50.142;8.724;2023-06-22T04:59:06;19.63;;;15.57;;
19891;SDS011;10108;50.142;8.724;2023-06-22T05:01:33;17.83;;;15.70;;
19891;SDS011;10108;50.142;8.724;2023-06-22T05:04:00;20.13;;;15.98;;
19891;SDS011;10108;50.142;8.724;2023-06-22T05:06:29;18.88;;;16.00;;
19891;SDS011;10108;50.142;8.724;2023-06-22T05:08:56;19.55;;;16.05;;
19891;SDS011;10108;50.142;8.724;2023-06-22T05:11:24;18.00;;;15.48;;
19891;SDS011;10108;50.142;8.724;2023-06-22T05:13:53;20.73;;;15.30;;
19891;SDS011;10108;50.142;8.724;2023-06-22T05:16:20;18.25;;;14.98;;
19891;SDS011;10108;50.142;8.724;2023-06-22T05:18:50;19.42;;;15.45;;
19891;SDS011;10108;50.142;8.724;2023-06-22T05:21:17;18.20;;;14.95;;
19891;SDS011;10108;50.142;8.724;2023-06-22T05:23:44;19.75;;;15.48;;
19891;SDS011;10108;50.142;8.724;2023-06-22T05:26:10;17.75;;;14.98;;
19891;SDS011;10108;50.142;8.724;2023-06-22T05:28:36;20.42;;;15.23;;
19891;SDS011;10108;50.142;8.724;2023-06-22T05:31:02;20.20;;;15.02;;
19891;SDS011;10108;50.142;8.724;2023-06-22T05:33:29;17.10;;;14.70;;
19891;SDS011;10108;50.142;8.724;2023-06-22T05:35:55;17.55;;;15.05;;
19891;SDS011;10108;50.142;8.724;2023-06-22T05:38:21;20.52;;;15.02;;
19891;SDS011;10108;50.142;8.724;2023-06-22T05:40:47;19.05;;;15.20;;
19891;SDS011;10108;50.142;8.724;2023-06-22T05:43:13;18.17;;;13.93;;
19891;SDS011;10108;50.142;8.724;2023-06-22T05:45:40;18.27;;;14.23;;
19891;SDS011;10108;50.142;8.724;2023-06-22T05:48:06;18.25;;;14.05;;
19891;SDS011;10108;50.142;8.724;2023-06-22T05:50:32;18.27;;;13.27;;
19891;SDS011;10108;50.142;8.724;2023-06-22T05:52:58;17.73;;;13.75;;
19891;SDS011;10108;50.142;8.724;2023-06-22T05:55:24;16.98;;;13.40;;
19891;SDS011;10108;50.142;8.724;2023-06-22T05:57:50;20.15;;;14.10;;
19891;SDS011;10108;50.142;8.724;2023-06-22T06:00:17;17.80;;;13.63;;
19891;SDS011;10108;50.142;8.724;2023-06-22T06:02:43;17.75;;;13.27;;
19891;SDS011;10108;50.142;8.724;2023-06-22T06:05:10;17.45;;;13.88;;
19891;SDS011;10108;50.142;8.724;2023-06-22T06:07:39;19.30;;;14.48;;
19891;SDS011;10108;50.142;8.724;2023-06-22T06:10:06;22.02;;;14.77;;
19891;SDS011;10108;50.142;8.724;2023-06-22T06:12:32;18.75;;;13.73;;
19891;SDS011;10108;50.142;8.724;2023-06-22T06:14:58;16.17;;;13.88;;
19891;SDS011;10108;50.142;8.724;2023-06-22T06:17:24;21.00;;;14.10;;
19891;SDS011;10108;50.142;8.724;2023-06-22T06:19:51;17.35;;;14.25;;
19891;SDS011;10108;50.142;8.724;2023-06-22T06:22:17;19.00;;;14.95;;
19891;SDS011;10108;50.142;8.724;2023-06-22T06:24:47;19.80;;;13.63;;
19891;SDS011;10108;50.142;8.724;2023-06-22T06:27:13;17.08;;;13.82;;
19891;SDS011;10108;50.142;8.724;2023-06-22T06:29:39;18.98;;;14.23;;
19891;SDS011;10108;50.142;8.724;2023-06-22T06:32:06;20.77;;;15.13;;
19891;SDS011;10108;50.142;8.724;2023-06-22T06:34:32;20.15;;;13.60;;
19891;SDS011;10108;50.142;8.724;2023-06-22T06:36:58;19.58;;;14.68;;
19891;SDS011;10108;50.142;8.724;2023-06-22T06:39:24;19.17;;;14.60;;
19891;SDS011;10108;50.142;8.724;2023-06-22T06:41:50;17.92;;;14.23;;
19891;SDS011;10108;50.142;8.724;2023-06-22T06:44:19;22.33;;;14.80;;
19891;SDS011;10108;50.142;8.724;2023-06-22T06:46:45;19.58;;;14.20;;
19891;SDS011;10108;50.142;8.724;2023-06-22T06:49:11;18.33;;;14.10;;
19891;SDS011;10108;50.142;8.724;2023-06-22T06:51:37;17.52;;;13.73;;
19891;SDS011;10108;50.142;8.724;2023-06-22T06:54:03;20.30;;;13.95;;
19891;SDS011;10108;50.142;8.724;2023-06-22T06:56:29;17.48;;;13.85;;
19891;SDS011;10108;50.142;8.724;2023-06-22T06:58:55;17.50;;;14.02;;
19891;SDS011;10108;50.142;8.724;2023-06-22T07:01:21;18.95;;;13.82;;
19891;SDS011;10108;50.142;8.724;2023-06-22T07:03:47;20.50;;;14.48;;
19891;SDS011;10108;50.142;8.724;2023-06-22T07:06:14;19.45;;;14.35;;
19891;SDS011;10108;50.142;8.724;2023-06-22T07:08:40;20.63;;;14.20;;
19891;SDS011;10108;50.142;8.724;2023-06-22T07:11:06;16.65;;;14.05;;
19891;SDS011;10108;50.142;8.724;2023-06-22T07:13:32;19.60;;;14.27;;
19891;SDS011;10108;50.142;8.724;2023-06-22T07:15:59;21.60;;;14.55;;
19891;SDS011;10108;50.142;8.724;2023-06-22T07:18:25;17.38;;;13.52;;
19891;SDS011;10108;50.142;8.724;2023-06-22T07:20:52;16.92;;;14.30;;
19891;SDS011;10108;50.142;8.724;2023-06-22T07:23:18;17.63;;;13.85;;
19891;SDS011;10108;50.142;8.724;2023-06-22T07:25:44;19.25;;;14.23;;
19891;SDS011;10108;50.142;8.724;2023-06-22T07:28:10;18.10;;;14.45;;
19891;SDS011;10108;50.142;8.724;2023-06-22T07:30:37;20.85;;;15.40;;
19891;SDS011;10108;50.142;8.724;2023-06-22T07:33:03;17.55;;;14.93;;
19891;SDS011;10108;50.142;8.724;2023-06-22T07:35:31;19.38;;;14.98;;
19891;SDS011;10108;50.142;8.724;2023-06-22T07:37:58;18.15;;;14.65;;
19891;SDS011;10108;50.142;8.724;2023-06-22T07:40:24;18.27;;;14.00;;
19891;SDS011;10108;50.142;8.724;2023-06-22T07:42:50;21.60;;;15.23;;
19891;SDS011;10108;50.142;8.724;2023-06-22T07:45:20;18.38;;;14.13;;
19891;SDS011;10108;50.142;8.724;2023-06-22T07:47:46;20.17;;;15.70;;
19891;SDS011;10108;50.142;8.724;2023-06-22T07:50:12;22.45;;;15.50;;
19891;SDS011;10108;50.142;8.724;2023-06-22T07:52:38;16.80;;;14.85;;
19891;SDS011;10108;50.142;8.724;2023-06-22T07:55:04;17.98;;;14.90;;
19891;SDS011;10108;50.142;8.724;2023-06-22T07:57:31;19.02;;;15.00;;
19891;SDS011;10108;50.142;8.724;2023-06-22T08:00:02;21.38;;;15.07;;
19891;SDS011;10108;50.142;8.724;2023-06-22T08:02:38;23.05;;;15.63;;
19891;SDS011;10108;50.142;8.724;2023-06-22T08:05:05;20.15;;;16.20;;
19891;SDS011;10108;50.142;8.724;2023-06-22T08:07:36;19.92;;;15.32;;
19891;SDS011;10108;50.142;8.724;2023-06-22T08:10:03;21.13;;;15.57;;
19891;SDS011;10108;50.142;8.724;2023-06-22T08:12:30;19.75;;;14.75;;
19891;SDS011;10108;50.142;8.724;2023-06-22T08:14:56;20.65;;;14.82;;
19891;SDS011;10108;50.142;8.724;2023-06-22T08:17:23;20.10;;;15.23;;
19891;SDS011;10108;50.142;8.724;2023-06-22T08:19:50;23.55;;;15.65;;
19891;SDS011;10108;50.142;8.724;2023-06-22T08:22:16;19.55;;;16.08;;
19891;SDS011;10108;50.142;8.724;2023-06-22T08:24:43;19.27;;;14.50;;
19891;SDS011;10108;50.142;8.724;2023-06-22T08:27:09;19.55;;;15.02;;
19891;SDS011;10108;50.142;8.724;2023-06-22T08:29:39;19.40;;;14.85;;
19891;SDS011;10108;50.142;8.724;2023-06-22T08:32:05;18.20;;;15.35;;
19891;SDS011;10108;50.142;8.724;2023-06-22T08:34:32;18.63;;;15.35;;
19891;SDS011;10108;50.142;8.724;2023-06-22T08:36:58;17.92;;;15.45;;
19891;SDS011;10108;50.142;8.724;2023-06-22T08:39:24;17.67;;;14.82;;
19891;SDS011;10108;50.142;8.724;2023-06-22T08:41:51;18.10;;;15.20;;
19891;SDS011;10108;50.142;8.724;2023-06-22T08:44:18;17.92;;;15.60;;
19891;SDS011;10108;50.142;8.724;2023-06-22T08:46:45;17.13;;;14.30;;
19891;SDS011;10108;50.142;8.724;2023-06-22T08:49:11;19.65;;;14.73;;
19891;SDS011;10108;50.142;8.724;2023-06-22T08:51:37;17.85;;;15.02;;
19891;SDS011;10108;50.142;8.724;2023-06-22T08:54:03;19.20;;;15.25;;
19891;SDS011;10108;50.142;8.724;2023-06-22T08:56:30;19.05;;;14.63;;
19891;SDS011;10108;50.142;8.724;2023-06-22T08:58:56;17.25;;;14.80;;
19891;SDS011;10108;50.142;8.724;2023-06-22T09:01:22;19.17;;;14.68;;
19891;SDS011;10108;50.142;8.724;2023-06-22T09:03:48;16.85;;;14.70;;
19891;SDS011;10108;50.142;8.724;2023-06-22T09:06:20;17.45;;;14.65;;
19891;SDS011;10108;50.142;8.724;2023-06-22T09:08:47;19.98;;;15.52;;
19891;SDS011;10108;50.142;8.724;2023-06-22T09:11:13;16.65;;;13.80;;
19891;SDS011;10108;50.142;8.724;2023-06-22T09:13:39;17.50;;;14.55;;
19891;SDS011;10108;50.142;8.724;2023-06-22T09:16:05;18.90;;;15.60;;
19891;SDS011;10108;50.142;8.724;2023-06-22T09:18:33;25.65;;;17.67;;
19891;SDS011;10108;50.142;8.724;2023-06-22T09:21:00;21.10;;;15.35;;
19891;SDS011;10108;50.142;8.724;2023-06-22T09:23:26;22.25;;;16.88;;
19891;SDS011;10108;50.142;8.724;2023-06-22T09:25:52;20.00;;;16.88;;
19891;SDS011;10108;50.142;8.724;2023-06-22T09:28:18;19.67;;;15.73;;
19891;SDS011;10108;50.142;8.724;2023-06-22T09:30:45;19.55;;;15.25;;
19891;SDS011;10108;50.142;8.724;2023-06-22T09:33:11;24.83;;;16.52;;
19891;SDS011;10108;50.142;8.724;2023-06-22T09:35:37;24.23;;;15.90;;
19891;SDS011;10108;50.142;8.724;2023-06-22T09:38:03;21.35;;;16.17;;
19891;SDS011;10108;50.142;8.724;2023-06-22T09:40:29;21.92;;;15.20;;
19891;SDS011;10108;50.142;8.724;2023-06-22T09:42:55;18.95;;;14.23;;
19891;SDS011;10108;50.142;8.724;2023-06-22T09:45:21;18.80;;;14.48;;
19891;SDS011;10108;50.142;8.724;2023-06-22T09:47:47;15.02;;;12.13;;
19891;SDS011;10108;50.142;8.724;2023-06-22T09:50:13;14.77;;;11.80;;
19891;SDS011;10108;50.142;8.724;2023-06-22T09:52:40;14.32;;;11.98;;
19891;SDS011;10108;50.142;8.724;2023-06-22T09:55:10;16.52;;;12.13;;
19891;SDS011;10108;50.142;8.724;2023-06-22T09:57:36;24.42;;;14.73;;
19891;SDS011;10108;50.142;8.724;2023-06-22T10:00:02;19.23;;;13.15;;
19891;SDS011;10108;50.142;8.724;2023-06-22T10:02:31;22.10;;;14.40;;
19891;SDS011;10108;50.142;8.724;2023-06-22T10:04:57;20.73;;;14.20;;
19891;SDS011;10108;50.142;8.724;2023-06-22T10:07:23;20.38;;;13.90;;
19891;SDS011;10108;50.142;8.724;2023-06-22T10:09:49;17.10;;;13.77;;
19891;SDS011;10108;50.142;8.724;2023-06-22T10:12:15;17.70;;;13.02;;
19891;SDS011;10108;50.142;8.724;2023-06-22T10:14:41;13.80;;;11.38;;
19891;SDS011;10108;50.142;8.724;2023-06-22T10:17:07;13.45;;;11.05;;
19891;SDS011;10108;50.142;8.724;2023-06-22T10:19:33;13.85;;;10.77;;
19891;SDS011;10108;50.142;8.724;2023-06-22T10:22:03;15.55;;;11.52;;
19891;SDS011;10108;50.142;8.724;2023-06-22T10:24:30;15.00;;;11.82;;
19891;SDS011;10108;50.142;8.724;2023-06-22T10:26:56;19.05;;;11.88;;
19891;SDS011;10108;50.142;8.724;2023-06-22T10:29:22;14.65;;;10.60;;
19891;SDS011;10108;50.142;8.724;2023-06-22T10:31:48;13.27;;;10.70;;
19891;SDS011;10108;50.142;8.724;2023-06-22T10:34:14;14.43;;;11.23;;
19891;SDS011;10108;50.142;8.724;2023-06-22T10:36:41;13.88;;;10.75;;
19891;SDS011;10108;50.142;8.724;2023-06-22T10:39:07;12.30;;;10.02;;
19891;SDS011;10108;50.142;8.724;2023-06-22T10:41:33;14.57;;;10.20;;
19891;SDS011;10108;50.142;8.724;2023-06-22T10:44:00;18.45;;;12.55;;
19891;SDS011;10108;50.142;8.724;2023-06-22T10:46:26;14.70;;;11.45;;
19891;SDS011;10108;50.142;8.724;2023-06-22T10:48:53;12.93;;;10.23;;
19891;SDS011;10108;50.142;8.724;2023-06-22T10:51:24;12.57;;;9.50;;
19891;SDS011;10108;50.142;8.724;2023-06-22T10:53:51;14.65;;;10.88;;
19891;SDS011;10108;50.142;8.724;2023-06-22T10:56:17;13.50;;;11.27;;
19891;SDS011;10108;50.142;8.724;2023-06-22T10:58:44;14.00;;;11.23;;
19891;SDS011;10108;50.142;8.724;2023-06-22T11:01:10;17.40;;;12.50;;
19891;SDS011;10108;50.142;8.724;2023-06-22T11:03:37;16.75;;;11.80;;
19891;SDS011;10108;50.142;8.724;2023-06-22T11:06:03;16.73;;;12.40;;
19891;SDS011;10108;50.142;8.724;2023-06-22T11:08:29;14.18;;;12.05;;
19891;SDS011;10108;50.142;8.724;2023-06-22T11:10:55;11.35;;;9.65;;
19891;SDS011;10108;50.142;8.724;2023-06-22T11:13:21;11.07;;;9.30;;
19891;SDS011;10108;50.142;8.724;2023-06-22T11:15:47;13.50;;;10.85;;
19891;SDS011;10108;50.142;8.724;2023-06-22T11:18:13;14.15;;;9.90;;
19891;SDS011;10108;50.142;8.724;2023-06-22T11:20:39;14.95;;;11.75;;
19891;SDS011;10108;50.142;8.724;2023-06-22T11:23:06;16.25;;;11.82;;
19891;SDS011;10108;50.142;8.724;2023-06-22T11:25:32;14.90;;;12.40;;
19891;SDS011;10108;50.142;8.724;2023-06-22T11:28:01;13.60;;;11.02;;
19891;SDS011;10108;50.142;8.724;2023-06-22T11:30:28;15.20;;;11.55;;
19891;SDS011;10108;50.142;8.724;2023-06-22T11:32:56;17.42;;;11.52;;
19891;SDS011;10108;50.142;8.724;2023-06-22T11:35:23;15.40;;;11.15;;
19891;SDS011;10108;50.142;8.724;2023-06-22T11:37:49;16.17;;;10.48;;
19891;SDS011;10108;50.142;8.724;2023-06-22T11:40:15;14.23;;;10.32;;
19891;SDS011;10108;50.142;8.724;2023-06-22T11:42:44;19.10;;;12.02;;
19891;SDS011;10108;50.142;8.724;2023-06-22T11:45:10;18.08;;;12.13;;
19891;SDS011;10108;50.142;8.724;2023-06-22T11:47:36;14.43;;;10.20;;
19891;SDS011;10108;50.142;8.724;2023-06-22T11:50:03;11.73;;;9.35;;
19891;SDS011;10108;50.142;8.724;2023-06-22T11:52:29;15.68;;;11.18;;
19891;SDS011;10108;50.142;8.724;2023-06-22T11:54:56;17.35;;;11.82;;
19891;SDS011;10108;50.142;8.724;2023-06-22T11:57:22;13.93;;;11.45;;
19891;SDS011;10108;50.142;8.724;2023-06-22T11:59:48;12.70;;;10.13;;
19891;SDS011;10108;50.142;8.724;2023-06-22T12:02:14;13.10;;;9.93;;
19891;SDS011;10108;50.142;8.724;2023-06-22T12:04:40;14.27;;;11.68;;
19891;SDS011;10108;50.142;8.724;2023-06-22T12:07:07;13.75;;;10.32;;
19891;SDS011;10108;50.142;8.724;2023-06-22T12:09:33;16.88;;;12.27;;
19891;SDS011;10108;50.142;8.724;2023-06-22T12:11:59;15.07;;;10.18;;
19891;SDS011;10108;50.142;8.724;2023-06-22T12:14:25;21.80;;;12.20;;
19891;SDS011;10108;50.142;8.724;2023-06-22T12:16:51;18.40;;;12.77;;
19891;SDS011;10108;50.142;8.724;2023-06-22T12:19:17;11.68;;;9.40;;
19891;SDS011;10108;50.142;8.724;2023-06-22T12:21:43;13.70;;;9.75;;
19891;SDS011;10108;50.142;8.724;2023-06-22T12:24:11;15.85;;;11.68;;
19891;SDS011;10108;50.142;8.724;2023-06-22T12:26:37;16.80;;;12.10;;
19891;SDS011;10108;50.142;8.724;2023-06-22T12:29:03;17.70;;;12.98;;
19891;SDS011;10108;50.142;8.724;2023-06-22T12:31:29;16.15;;;12.80;;
19891;SDS011;10108;50.142;8.724;2023-06-22T12:33:56;20.42;;;12.95;;
19891;SDS011;10108;50.142;8.724;2023-06-22T12:36:22;16.10;;;12.65;;
19891;SDS011;10108;50.142;8.724;2023-06-22T12:38:48;18.35;;;12.60;;
19891;SDS011;10108;50.142;8.724;2023-06-22T12:41:14;17.25;;;12.55;;
19891;SDS011;10108;50.142;8.724;2023-06-22T12:43:40;14.75;;;10.95;;
19891;SDS011;10108;50.142;8.724;2023-06-22T12:46:06;12.63;;;10.65;;
19891;SDS011;10108;50.142;8.724;2023-06-22T12:48:32;12.13;;;9.13;;
19891;SDS011;10108;50.142;8.724;2023-06-22T12:50:58;14.32;;;10.60;;
19891;SDS011;10108;50.142;8.724;2023-06-22T12:53:24;17.88;;;12.27;;
19891;SDS011;10108;50.142;8.724;2023-06-22T12:55:52;12.35;;;9.20;;
19891;SDS011;10108;50.142;8.724;2023-06-22T12:58:18;15.32;;;10.13;;
19891;SDS011;10108;50.142;8.724;2023-06-22T13:00:45;16.60;;;11.20;;
19891;SDS011;10108;50.142;8.724;2023-06-22T13:03:11;13.70;;;9.45;;
19891;SDS011;10108;50.142;8.724;2023-06-22T13:05:37;13.90;;;10.43;;
19891;SDS011;10108;50.142;8.724;2023-06-22T13:08:03;12.65;;;9.05;;
19891;SDS011;10108;50.142;8.724;2023-06-22T13:10:29;18.42;;;11.63;;
19891;SDS011;10108;50.142;8.724;2023-06-22T13:12:56;18.50;;;12.48;;
19891;SDS011;10108;50.142;8.724;2023-06-22T13:15:26;12.43;;;9.45;;
19891;SDS011;10108;50.142;8.724;2023-06-22T13:17:54;12.40;;;9.30;;
19891;SDS011;10108;50.142;8.724;2023-06-22T13:20:20;17.88;;;11.80;;
19891;SDS011;10108;50.142;8.724;2023-06-22T13:22:47;13.30;;;10.13;;
19891;SDS011;10108;50.142;8.724;2023-06-22T13:25:13;11.98;;;9.93;;
19891;SDS011;10108;50.142;8.724;2023-06-22T13:27:44;16.30;;;11.52;;
19891;SDS011;10108;50.142;8.724;2023-06-22T13:30:10;13.43;;;10.95;;
19891;SDS011;10108;50.142;8.724;2023-06-22T13:32:37;11.48;;;9.00;;
19891;SDS011;10108;50.142;8.724;2023-06-22T13:35:09;11.27;;;9.15;;
19891;SDS011;10108;50.142;8.724;2023-06-22T13:37:38;11.82;;;8.50;;
19891;SDS011;10108;50.142;8.724;2023-06-22T13:40:05;13.68;;;9.30;;
19891;SDS011;10108;50.142;8.724;2023-06-22T13:42:32;10.00;;;8.20;;
19891;SDS011;10108;50.142;8.724;2023-06-22T13:44:58;14.38;;;10.80;;
19891;SDS011;10108;50.142;8.724;2023-06-22T13:47:25;14.02;;;9.75;;
19891;SDS011;10108;50.142;8.724;2023-06-22T13:49:51;21.80;;;11.82;;
19891;SDS011;10108;50.142;8.724;2023-06-22T13:52:20;12.07;;;9.80;;
19891;SDS011;10108;50.142;8.724;2023-06-22T13:54:50;14.63;;;10.35;;
19891;SDS011;10108;50.142;8.724;2023-06-22T13:57:16;12.50;;;9.52;;
19891;SDS011;10108;50.142;8.724;2023-06-22T13:59:42;14.40;;;10.93;;
19891;SDS011;10108;50.142;8.724;2023-06-22T14:02:08;11.90;;;9.50;;
19891;SDS011;10108;50.142;8.724;2023-06-22T14:04:34;11.27;;;9.43;;
19891;SDS011;10108;50.142;8.724;2023-06-22T14:07:00;15.13;;;11.10;;
19891;SDS011;10108;50.142;8.724;2023-06-22T14:09:26;17.73;;;12.60;;
19891;SDS011;10108;50.142;8.724;2023-06-22T14:11:54;15.80;;;11.48;;
19891;SDS011;10108;50.142;8.724;2023-06-22T14:14:20;14.57;;;10.10;;
19891;SDS011;10108;50.142;8.724;2023-06-22T14:16:46;14.20;;;10.75;;
19891;SDS011;10108;50.142;8.724;2023-06-22T14:19:13;18.10;;;12.70;;
19891;SDS011;10108;50.142;8.724;2023-06-22T14:21:39;17.92;;;11.75;;
19891;SDS011;10108;50.142;8.724;2023-06-22T14:24:05;10.65;;;9.35;;
19891;SDS011;10108;50.142;8.724;2023-06-22T14:26:31;15.38;;;11.48;;
19891;SDS011;10108;50.142;8.724;2023-06-22T14:28:57;18.80;;;11.80;;
19891;SDS011;10108;50.142;8.724;2023-06-22T14:31:23;15.23;;;10.20;;
19891;SDS011;10108;50.142;8.724;2023-06-22T14:33:49;18.23;;;11.63;;
19891;SDS011;10108;50.142;8.724;2023-06-22T14:36:16;15.25;;;10.73;;
19891;SDS011;10108;50.142;8.724;2023-06-22T14:38:45;13.02;;;9.65;;
19891;SDS011;10108;50.142;8.724;2023-06-22T14:41:14;15.68;;;10.57;;
19891;SDS011;10108;50.142;8.724;2023-06-22T14:43:46;16.55;;;11.50;;
19891;SDS011;10108;50.142;8.724;2023-06-22T14:46:17;18.73;;;11.73;;
19891;SDS011;10108;50.142;8.724;2023-06-22T14:48:44;13.77;;;10.50;;